createdAt,value
2022-11-27T00:04:51.618Z,100.00
2022-11-27T00:14:55.674Z,100.00
2022-11-27T00:24:58.358Z,100.00
2022-11-27T00:35:00.859Z,100.00
2022-11-27T00:45:03.568Z,100.00
2022-11-27T00:55:06.477Z,100.00
2022-11-27T01:05:09.502Z,100.00
2022-11-27T01:15:12.188Z,100.00
2022-11-27T01:25:14.772Z,100.00
2022-11-27T01:35:17.383Z,100.00
2022-11-27T01:45:21.645Z,100.00
2022-11-27T01:55:31.087Z,100.00
2022-11-27T02:05:34.066Z,100.00
2022-11-27T02:16:18.237Z,100.00
2022-11-27T02:26:55.253Z,100.00
2022-11-27T02:37:19.576Z,100.00
2022-11-27T02:47:23.405Z,100.00
2022-11-27T02:57:27.365Z,100.00
2022-11-27T03:07:45.868Z,100.00
2022-11-27T03:18:19.149Z,100.00
2022-11-27T03:28:23.254Z,100.00
2022-11-27T03:38:25.738Z,100.00
2022-11-27T03:48:46.503Z,100.00
2022-11-27T03:59:14.119Z,100.00
2022-11-27T04:09:16.702Z,100.00
2022-11-27T04:19:19.134Z,100.00
2022-11-27T04:29:22.378Z,100.00
2022-11-27T04:39:24.897Z,100.00
2022-11-27T04:49:27.522Z,100.00
2022-11-27T04:59:30.523Z,100.00
2022-11-27T05:09:33.010Z,100.00
2022-11-27T05:19:35.433Z,100.00
2022-11-27T05:29:40.311Z,100.00
2022-11-27T05:39:42.969Z,100.00
2022-11-27T05:49:45.480Z,100.00
2022-11-27T05:59:48.159Z,100.00
2022-11-27T06:09:50.872Z,100.00
2022-11-27T06:19:53.791Z,100.00
2022-11-27T06:29:56.539Z,100.00
2022-11-27T06:39:58.890Z,100.00
2022-11-27T06:50:01.402Z,100.00
2022-11-27T07:00:06.187Z,100.00
2022-11-27T07:10:09.613Z,100.00
2022-11-27T07:20:12.703Z,100.00
2022-11-27T07:30:17.567Z,100.00
2022-11-27T07:40:20.217Z,100.00
2022-11-27T07:50:23.419Z,100.00
2022-11-27T08:00:26.367Z,100.00
2022-11-27T08:10:29.011Z,100.00
2022-11-27T08:20:31.488Z,100.00
2022-11-27T08:30:33.787Z,100.00
2022-11-27T08:40:36.627Z,100.00
2022-11-27T08:50:39.687Z,100.00
2022-11-27T09:00:42.797Z,100.00
2022-11-27T09:10:46.807Z,100.00
2022-11-27T09:21:04.091Z,100.00
2022-11-27T09:31:08.761Z,100.00
2022-11-27T09:41:11.960Z,100.00
2022-11-27T09:51:34.720Z,100.00
2022-11-27T10:01:45.281Z,100.00
2022-11-27T10:12:10.373Z,100.00
2022-11-27T10:22:28.669Z,100.00
2022-11-27T10:43:18.648Z,100.00
2022-11-27T10:53:32.463Z,100.00
2022-11-27T11:03:36.546Z,100.00
2022-11-27T11:13:42.180Z,100.00
2022-11-27T11:23:48.327Z,100.00
2022-11-27T11:33:58.917Z,100.00
2022-11-27T11:44:03.038Z,100.00
2022-11-27T11:54:35.893Z,100.00
2022-11-27T12:05:08.011Z,97.86
2022-11-27T12:15:35.134Z,100.00
2022-11-27T12:26:02.598Z,99.63
2022-11-27T12:36:28.957Z,96.14
2022-11-27T12:47:00.423Z,94.82
2022-11-27T12:57:08.643Z,96.83
2022-11-27T13:07:21.427Z,98.37
2022-11-27T13:17:30.381Z,98.01
2022-11-27T13:27:37.858Z,97.93
2022-11-27T13:37:42.754Z,100.00
2022-11-27T13:47:46.388Z,99.48
2022-11-27T13:57:54.143Z,99.89
2022-11-27T14:07:57.884Z,100.00
2022-11-27T14:18:22.427Z,100.00
2022-11-27T14:28:26.597Z,100.00
2022-11-27T14:38:31.215Z,100.00
2022-11-27T14:48:48.851Z,100.00
2022-11-27T14:58:57.841Z,100.00
2022-11-27T15:09:29.705Z,100.00
2022-11-27T15:19:31.764Z,100.00
2022-11-27T15:29:37.581Z,100.00
2022-11-27T15:39:48.551Z,100.00
2022-11-27T15:49:51.848Z,100.00
2022-11-27T15:59:54.760Z,100.00
2022-11-27T16:09:58.511Z,100.00
2022-11-27T16:20:01.630Z,100.00
2022-11-27T16:30:05.379Z,100.00
2022-11-27T16:40:08.785Z,100.00
2022-11-27T16:50:14.809Z,100.00
2022-11-27T17:00:18.232Z,100.00
2022-11-27T17:10:21.508Z,100.00
2022-11-27T17:20:25.013Z,100.00
2022-11-27T17:30:28.541Z,100.00
2022-11-27T17:40:31.133Z,100.00
2022-11-27T17:50:33.982Z,100.00
2022-11-27T18:00:40.435Z,100.00
2022-11-27T18:10:43.800Z,100.00
2022-11-27T18:20:47.160Z,100.00
2022-11-27T18:30:50.835Z,100.00
2022-11-27T18:40:53.770Z,100.00
2022-11-27T18:51:10.811Z,100.00
2022-11-27T19:01:17.356Z,100.00
2022-11-27T19:11:24.465Z,100.00
2022-11-27T19:21:31.746Z,100.00
2022-11-27T19:31:35.356Z,100.00
2022-11-27T19:41:38.244Z,100.00
2022-11-27T19:51:41.506Z,100.00
2022-11-27T20:01:45.222Z,100.00
2022-11-27T20:11:49.418Z,100.00
2022-11-27T20:21:52.167Z,100.00
2022-11-27T20:31:55.212Z,100.00
2022-11-27T20:41:57.894Z,100.00
2022-11-27T20:52:03.993Z,100.00
2022-11-27T21:02:06.382Z,100.00
2022-11-27T21:12:11.497Z,100.00
2022-11-27T21:22:14.780Z,100.00
2022-11-27T21:32:23.038Z,100.00
2022-11-27T21:42:26.929Z,100.00
2022-11-27T21:52:30.208Z,100.00
2022-11-27T22:02:34.387Z,100.00
2022-11-27T22:12:37.437Z,100.00
2022-11-27T22:22:40.063Z,100.00
2022-11-27T22:32:42.890Z,100.00
2022-11-27T22:42:46.105Z,100.00
2022-11-27T22:52:48.870Z,100.00
2022-11-27T23:02:51.718Z,100.00
2022-11-27T23:12:54.815Z,100.00
2022-11-27T23:22:57.654Z,100.00
2022-11-27T23:33:00.179Z,100.00
2022-11-27T23:43:02.686Z,100.00
2022-11-27T23:53:05.108Z,100.00
